sensor_id;sensor_type;location;lat;lon;timestamp;P1;durP1;ratioP1;P2;durP2;ratioP2
42294;SDS011;27947;47.556;18.718;2022-09-20T00:02:15;0.73;;;0.47;;
42294;SDS011;27947;47.556;18.718;2022-09-20T00:04:41;0.60;;;0.45;;
42294;SDS011;27947;47.556;18.718;2022-09-20T00:07:06;4.55;;;0.80;;
42294;SDS011;27947;47.556;18.718;2022-09-20T00:09:32;2.30;;;0.52;;
42294;SDS011;27947;47.556;18.718;2022-09-20T00:11:57;1.23;;;0.70;;
42294;SDS011;27947;47.556;18.718;2022-09-20T00:14:23;1.35;;;0.60;;
42294;SDS011;27947;47.556;18.718;2022-09-20T00:16:49;4.07;;;1.15;;
42294;SDS011;27947;47.556;18.718;2022-09-20T00:19:18;1.15;;;0.60;;
42294;SDS011;27947;47.556;18.718;2022-09-20T00:21:44;1.83;;;0.68;;
42294;SDS011;27947;47.556;18.718;2022-09-20T00:24:09;2.05;;;0.70;;
42294;SDS011;27947;47.556;18.718;2022-09-20T00:26:35;2.28;;;0.77;;
42294;SDS011;27947;47.556;18.718;2022-09-20T00:29:00;0.50;;;0.40;;
42294;SDS011;27947;47.556;18.718;2022-09-20T00:31:26;0.85;;;0.60;;
42294;SDS011;27947;47.556;18.718;2022-09-20T00:33:54;0.63;;;0.50;;
42294;SDS011;27947;47.556;18.718;2022-09-20T00:36:39;0.63;;;0.40;;
42294;SDS011;27947;47.556;18.718;2022-09-20T00:39:04;2.85;;;0.85;;
42294;SDS011;27947;47.556;18.718;2022-09-20T00:41:30;1.88;;;0.65;;
42294;SDS011;27947;47.556;18.718;2022-09-20T00:43:56;1.92;;;0.63;;
42294;SDS011;27947;47.556;18.718;2022-09-20T00:46:26;0.68;;;0.40;;
42294;SDS011;27947;47.556;18.718;2022-09-20T00:48:53;5.60;;;0.70;;
42294;SDS011;27947;47.556;18.718;2022-09-20T00:51:22;0.50;;;0.38;;
42294;SDS011;27947;47.556;18.718;2022-09-20T00:53:49;3.22;;;0.63;;
42294;SDS011;27947;47.556;18.718;2022-09-20T00:56:19;1.38;;;0.82;;
42294;SDS011;27947;47.556;18.718;2022-09-20T00:58:49;1.27;;;0.93;;
42294;SDS011;27947;47.556;18.718;2022-09-20T01:01:15;1.40;;;0.57;;
42294;SDS011;27947;47.556;18.718;2022-09-20T01:03:41;1.23;;;0.47;;
42294;SDS011;27947;47.556;18.718;2022-09-20T01:06:09;0.65;;;0.50;;
42294;SDS011;27947;47.556;18.718;2022-09-20T01:08:35;1.33;;;0.60;;
42294;SDS011;27947;47.556;18.718;2022-09-20T01:11:00;1.33;;;0.70;;
42294;SDS011;27947;47.556;18.718;2022-09-20T01:13:26;1.13;;;0.63;;
42294;SDS011;27947;47.556;18.718;2022-09-20T01:15:51;1.55;;;0.95;;
42294;SDS011;27947;47.556;18.718;2022-09-20T01:18:17;2.75;;;0.70;;
42294;SDS011;27947;47.556;18.718;2022-09-20T01:20:43;4.00;;;0.70;;
42294;SDS011;27947;47.556;18.718;2022-09-20T01:28:19;2.90;;;1.02;;
42294;SDS011;27947;47.556;18.718;2022-09-20T01:30:47;0.73;;;0.60;;
42294;SDS011;27947;47.556;18.718;2022-09-20T01:33:29;4.05;;;0.80;;
42294;SDS011;27947;47.556;18.718;2022-09-20T01:35:58;1.58;;;0.95;;
42294;SDS011;27947;47.556;18.718;2022-09-20T01:41:32;1.70;;;0.70;;
42294;SDS011;27947;47.556;18.718;2022-09-20T01:44:04;2.40;;;0.70;;
42294;SDS011;27947;47.556;18.718;2022-09-20T01:46:31;2.55;;;1.08;;
42294;SDS011;27947;47.556;18.718;2022-09-20T01:51:47;1.98;;;0.82;;
42294;SDS011;27947;47.556;18.718;2022-09-20T02:02:26;2.92;;;1.02;;
42294;SDS011;27947;47.556;18.718;2022-09-20T02:05:03;1.58;;;0.75;;
42294;SDS011;27947;47.556;18.718;2022-09-20T02:28:47;3.42;;;1.00;;
42294;SDS011;27947;47.556;18.718;2022-09-20T02:39:31;0.95;;;0.88;;
42294;SDS011;27947;47.556;18.718;2022-09-20T02:42:15;1.95;;;1.05;;
42294;SDS011;27947;47.556;18.718;2022-09-20T02:44:47;6.45;;;0.90;;
42294;SDS011;27947;47.556;18.718;2022-09-20T02:50:03;2.73;;;1.00;;
42294;SDS011;27947;47.556;18.718;2022-09-20T02:52:35;3.45;;;1.30;;
42294;SDS011;27947;47.556;18.718;2022-09-20T02:55:09;1.58;;;1.00;;
42294;SDS011;27947;47.556;18.718;2022-09-20T02:57:41;1.55;;;1.17;;
42294;SDS011;27947;47.556;18.718;2022-09-20T03:00:17;2.50;;;1.20;;
42294;SDS011;27947;47.556;18.718;2022-09-20T03:02:47;3.78;;;1.20;;
42294;SDS011;27947;47.556;18.718;2022-09-20T03:10:26;2.35;;;1.20;;
42294;SDS011;27947;47.556;18.718;2022-09-20T03:15:33;3.35;;;1.38;;
42294;SDS011;27947;47.556;18.718;2022-09-20T03:38:03;1.83;;;1.10;;
42294;SDS011;27947;47.556;18.718;2022-09-20T03:43:04;5.72;;;1.30;;
42294;SDS011;27947;47.556;18.718;2022-09-20T03:45:43;2.92;;;1.38;;
42294;SDS011;27947;47.556;18.718;2022-09-20T04:11:30;1.93;;;1.30;;
42294;SDS011;27947;47.556;18.718;2022-09-20T04:14:10;6.45;;;1.33;;
42294;SDS011;27947;47.556;18.718;2022-09-20T04:16:52;1.80;;;1.15;;
42294;SDS011;27947;47.556;18.718;2022-09-20T04:19:23;1.85;;;1.25;;
42294;SDS011;27947;47.556;18.718;2022-09-20T04:25:11;2.10;;;1.50;;
42294;SDS011;27947;47.556;18.718;2022-09-20T04:27:14;3.85;;;1.70;;
42294;SDS011;27947;47.556;18.718;2022-09-20T04:29:43;2.65;;;1.20;;
42294;SDS011;27947;47.556;18.718;2022-09-20T04:35:15;2.35;;;1.70;;
42294;SDS011;27947;47.556;18.718;2022-09-20T04:38:07;3.25;;;1.23;;
42294;SDS011;27947;47.556;18.718;2022-09-20T04:48:44;3.83;;;1.67;;
42294;SDS011;27947;47.556;18.718;2022-09-20T05:04:17;3.65;;;1.70;;
42294;SDS011;27947;47.556;18.718;2022-09-20T05:19:46;1.88;;;1.48;;
42294;SDS011;27947;47.556;18.718;2022-09-20T05:22:40;2.13;;;1.40;;
42294;SDS011;27947;47.556;18.718;2022-09-20T05:28:05;4.38;;;1.40;;
42294;SDS011;27947;47.556;18.718;2022-09-20T05:30:39;5.07;;;1.30;;
42294;SDS011;27947;47.556;18.718;2022-09-20T05:38:54;3.00;;;1.63;;
42294;SDS011;27947;47.556;18.718;2022-09-20T06:07:33;3.33;;;1.63;;
42294;SDS011;27947;47.556;18.718;2022-09-20T06:18:07;4.57;;;2.17;;
42294;SDS011;27947;47.556;18.718;2022-09-20T06:20:36;2.85;;;1.65;;
42294;SDS011;27947;47.556;18.718;2022-09-20T06:23:08;2.22;;;1.42;;
42294;SDS011;27947;47.556;18.718;2022-09-20T06:28:23;3.53;;;2.10;;
42294;SDS011;27947;47.556;18.718;2022-09-20T06:30:50;3.05;;;1.77;;
42294;SDS011;27947;47.556;18.718;2022-09-20T06:41:45;5.63;;;2.65;;
42294;SDS011;27947;47.556;18.718;2022-09-20T06:44:10;2.45;;;1.60;;
42294;SDS011;27947;47.556;18.718;2022-09-20T06:46:35;3.55;;;1.85;;
42294;SDS011;27947;47.556;18.718;2022-09-20T06:49:03;1.58;;;1.38;;
42294;SDS011;27947;47.556;18.718;2022-09-20T06:51:32;2.50;;;1.63;;
42294;SDS011;27947;47.556;18.718;2022-09-20T06:53:58;2.55;;;1.65;;
42294;SDS011;27947;47.556;18.718;2022-09-20T06:56:24;4.70;;;1.90;;
42294;SDS011;27947;47.556;18.718;2022-09-20T06:58:51;2.72;;;1.48;;
42294;SDS011;27947;47.556;18.718;2022-09-20T07:01:17;2.72;;;1.15;;
42294;SDS011;27947;47.556;18.718;2022-09-20T07:03:42;2.30;;;1.35;;
42294;SDS011;27947;47.556;18.718;2022-09-20T07:06:08;1.80;;;1.00;;
42294;SDS011;27947;47.556;18.718;2022-09-20T07:08:34;2.13;;;1.05;;
42294;SDS011;27947;47.556;18.718;2022-09-20T07:11:05;7.32;;;1.38;;
42294;SDS011;27947;47.556;18.718;2022-09-20T07:13:32;3.08;;;1.42;;
42294;SDS011;27947;47.556;18.718;2022-09-20T07:15:58;4.18;;;1.08;;
42294;SDS011;27947;47.556;18.718;2022-09-20T07:18:24;1.65;;;0.90;;
42294;SDS011;27947;47.556;18.718;2022-09-20T07:20:49;2.15;;;1.23;;
42294;SDS011;27947;47.556;18.718;2022-09-20T07:23:14;1.67;;;1.10;;
42294;SDS011;27947;47.556;18.718;2022-09-20T07:25:40;2.70;;;1.20;;
42294;SDS011;27947;47.556;18.718;2022-09-20T07:28:06;4.03;;;1.23;;
42294;SDS011;27947;47.556;18.718;2022-09-20T07:30:31;1.67;;;1.20;;
42294;SDS011;27947;47.556;18.718;2022-09-20T07:32:56;1.42;;;1.00;;
42294;SDS011;27947;47.556;18.718;2022-09-20T07:35:22;3.22;;;1.02;;
42294;SDS011;27947;47.556;18.718;2022-09-20T07:37:47;1.58;;;1.20;;
42294;SDS011;27947;47.556;18.718;2022-09-20T07:40:20;2.35;;;1.00;;
42294;SDS011;27947;47.556;18.718;2022-09-20T07:42:45;1.60;;;1.27;;
42294;SDS011;27947;47.556;18.718;2022-09-20T07:45:10;2.00;;;1.00;;
42294;SDS011;27947;47.556;18.718;2022-09-20T07:47:36;1.50;;;1.10;;
42294;SDS011;27947;47.556;18.718;2022-09-20T07:50:05;3.08;;;1.05;;
42294;SDS011;27947;47.556;18.718;2022-09-20T07:52:30;1.42;;;1.05;;
42294;SDS011;27947;47.556;18.718;2022-09-20T07:54:56;5.40;;;1.05;;
42294;SDS011;27947;47.556;18.718;2022-09-20T07:57:21;2.22;;;1.17;;
42294;SDS011;27947;47.556;18.718;2022-09-20T07:59:47;1.90;;;1.23;;
42294;SDS011;27947;47.556;18.718;2022-09-20T08:02:12;2.15;;;1.20;;
42294;SDS011;27947;47.556;18.718;2022-09-20T08:04:38;2.13;;;1.45;;
42294;SDS011;27947;47.556;18.718;2022-09-20T08:07:04;3.45;;;1.23;;
42294;SDS011;27947;47.556;18.718;2022-09-20T08:09:29;2.85;;;0.90;;
42294;SDS011;27947;47.556;18.718;2022-09-20T08:11:55;2.88;;;1.88;;
42294;SDS011;27947;47.556;18.718;2022-09-20T08:14:21;2.63;;;1.10;;
42294;SDS011;27947;47.556;18.718;2022-09-20T08:16:47;1.58;;;0.90;;
42294;SDS011;27947;47.556;18.718;2022-09-20T08:19:13;1.85;;;1.38;;
42294;SDS011;27947;47.556;18.718;2022-09-20T08:21:39;1.65;;;1.10;;
42294;SDS011;27947;47.556;18.718;2022-09-20T08:24:05;1.20;;;1.05;;
42294;SDS011;27947;47.556;18.718;2022-09-20T08:26:30;2.78;;;1.30;;
42294;SDS011;27947;47.556;18.718;2022-09-20T08:28:56;2.05;;;1.00;;
42294;SDS011;27947;47.556;18.718;2022-09-20T08:31:23;2.58;;;1.25;;
42294;SDS011;27947;47.556;18.718;2022-09-20T08:33:49;2.30;;;0.90;;
42294;SDS011;27947;47.556;18.718;2022-09-20T08:36:16;2.15;;;0.98;;
42294;SDS011;27947;47.556;18.718;2022-09-20T08:38:42;2.75;;;1.15;;
42294;SDS011;27947;47.556;18.718;2022-09-20T08:41:14;1.13;;;0.93;;
42294;SDS011;27947;47.556;18.718;2022-09-20T08:43:42;2.13;;;0.90;;
42294;SDS011;27947;47.556;18.718;2022-09-20T08:46:12;1.30;;;1.13;;
42294;SDS011;27947;47.556;18.718;2022-09-20T08:48:38;2.47;;;1.02;;
42294;SDS011;27947;47.556;18.718;2022-09-20T08:51:04;2.83;;;1.30;;
42294;SDS011;27947;47.556;18.718;2022-09-20T08:53:32;3.35;;;1.20;;
42294;SDS011;27947;47.556;18.718;2022-09-20T08:55:58;1.48;;;1.00;;
42294;SDS011;27947;47.556;18.718;2022-09-20T08:58:24;2.05;;;1.00;;
42294;SDS011;27947;47.556;18.718;2022-09-20T09:00:49;1.70;;;0.70;;
42294;SDS011;27947;47.556;18.718;2022-09-20T09:03:15;1.13;;;1.00;;
42294;SDS011;27947;47.556;18.718;2022-09-20T09:08:09;1.88;;;0.73;;
42294;SDS011;27947;47.556;18.718;2022-09-20T09:10:40;0.90;;;0.85;;
42294;SDS011;27947;47.556;18.718;2022-09-20T09:13:05;1.75;;;0.80;;
42294;SDS011;27947;47.556;18.718;2022-09-20T09:15:32;2.28;;;0.77;;
42294;SDS011;27947;47.556;18.718;2022-09-20T09:17:58;6.07;;;0.98;;
42294;SDS011;27947;47.556;18.718;2022-09-20T09:20:23;0.60;;;0.60;;
42294;SDS011;27947;47.556;18.718;2022-09-20T09:22:59;1.20;;;0.80;;
42294;SDS011;27947;47.556;18.718;2022-09-20T09:25:26;2.95;;;1.00;;
42294;SDS011;27947;47.556;18.718;2022-09-20T09:30:26;2.53;;;0.82;;
42294;SDS011;27947;47.556;18.718;2022-09-20T09:32:52;2.45;;;0.88;;
42294;SDS011;27947;47.556;18.718;2022-09-20T09:35:30;2.20;;;0.70;;
42294;SDS011;27947;47.556;18.718;2022-09-20T09:37:57;2.58;;;0.82;;
42294;SDS011;27947;47.556;18.718;2022-09-20T09:40:23;3.20;;;0.80;;
42294;SDS011;27947;47.556;18.718;2022-09-20T09:42:52;2.83;;;0.68;;
42294;SDS011;27947;47.556;18.718;2022-09-20T09:45:34;0.50;;;0.50;;
42294;SDS011;27947;47.556;18.718;2022-09-20T09:50:42;1.13;;;0.63;;
42294;SDS011;27947;47.556;18.718;2022-09-20T09:53:12;1.58;;;0.80;;
42294;SDS011;27947;47.556;18.718;2022-09-20T09:55:43;0.87;;;0.50;;
42294;SDS011;27947;47.556;18.718;2022-09-20T10:00:45;1.75;;;0.80;;
42294;SDS011;27947;47.556;18.718;2022-09-20T10:10:55;1.80;;;0.70;;
42294;SDS011;27947;47.556;18.718;2022-09-20T10:21:34;3.03;;;0.70;;
42294;SDS011;27947;47.556;18.718;2022-09-20T10:36:56;8.20;;;0.88;;
42294;SDS011;27947;47.556;18.718;2022-09-20T10:39:30;1.00;;;0.77;;
42294;SDS011;27947;47.556;18.718;2022-09-20T10:42:13;0.77;;;0.65;;
42294;SDS011;27947;47.556;18.718;2022-09-20T10:47:42;3.05;;;0.80;;
42294;SDS011;27947;47.556;18.718;2022-09-20T11:08:16;2.17;;;0.60;;
42294;SDS011;27947;47.556;18.718;2022-09-20T11:13:55;2.08;;;0.70;;
42294;SDS011;27947;47.556;18.718;2022-09-20T11:21:07;1.00;;;0.50;;
42294;SDS011;27947;47.556;18.718;2022-09-20T11:27:06;3.63;;;0.93;;
42294;SDS011;27947;47.556;18.718;2022-09-20T11:31:44;0.95;;;0.60;;
42294;SDS011;27947;47.556;18.718;2022-09-20T11:36:38;3.20;;;1.42;;
42294;SDS011;27947;47.556;18.718;2022-09-20T11:41:50;0.50;;;0.50;;
42294;SDS011;27947;47.556;18.718;2022-09-20T11:44:19;1.08;;;0.70;;
42294;SDS011;27947;47.556;18.718;2022-09-20T11:46:45;1.40;;;0.65;;
42294;SDS011;27947;47.556;18.718;2022-09-20T11:49:17;8.10;;;2.97;;
42294;SDS011;27947;47.556;18.718;2022-09-20T11:54:29;2.47;;;1.17;;
42294;SDS011;27947;47.556;18.718;2022-09-20T11:56:55;1.67;;;0.85;;
42294;SDS011;27947;47.556;18.718;2022-09-20T12:01:46;1.75;;;0.68;;
42294;SDS011;27947;47.556;18.718;2022-09-20T12:04:22;0.80;;;0.60;;
42294;SDS011;27947;47.556;18.718;2022-09-20T12:07:00;1.17;;;0.60;;
42294;SDS011;27947;47.556;18.718;2022-09-20T12:09:33;0.70;;;0.50;;
42294;SDS011;27947;47.556;18.718;2022-09-20T12:12:11;1.25;;;0.50;;
42294;SDS011;27947;47.556;18.718;2022-09-20T12:14:38;1.83;;;0.52;;
42294;SDS011;27947;47.556;18.718;2022-09-20T12:17:04;1.65;;;0.70;;
42294;SDS011;27947;47.556;18.718;2022-09-20T12:26:50;0.93;;;0.25;;
42294;SDS011;27947;47.556;18.718;2022-09-20T12:31:56;0.60;;;0.40;;
42294;SDS011;27947;47.556;18.718;2022-09-20T12:55:04;0.50;;;0.50;;
42294;SDS011;27947;47.556;18.718;2022-09-20T12:57:30;0.82;;;0.60;;
42294;SDS011;27947;47.556;18.718;2022-09-20T12:59:56;0.68;;;0.50;;
42294;SDS011;27947;47.556;18.718;2022-09-20T13:07:54;1.25;;;0.63;;
42294;SDS011;27947;47.556;18.718;2022-09-20T13:10:26;1.63;;;0.80;;
42294;SDS011;27947;47.556;18.718;2022-09-20T13:12:55;1.58;;;0.93;;
42294;SDS011;27947;47.556;18.718;2022-09-20T13:15:21;0.80;;;0.60;;
42294;SDS011;27947;47.556;18.718;2022-09-20T13:17:47;0.63;;;0.50;;
42294;SDS011;27947;47.556;18.718;2022-09-20T13:20:26;1.00;;;0.80;;
42294;SDS011;27947;47.556;18.718;2022-09-20T13:22:55;2.60;;;0.70;;
42294;SDS011;27947;47.556;18.718;2022-09-20T13:25:20;1.45;;;0.80;;
42294;SDS011;27947;47.556;18.718;2022-09-20T13:30:27;1.42;;;0.50;;
42294;SDS011;27947;47.556;18.718;2022-09-20T13:32:55;4.00;;;0.40;;
42294;SDS011;27947;47.556;18.718;2022-09-20T13:35:22;0.93;;;0.40;;
42294;SDS011;27947;47.556;18.718;2022-09-20T13:38:01;1.45;;;0.50;;
42294;SDS011;27947;47.556;18.718;2022-09-20T13:40:33;0.80;;;0.40;;
42294;SDS011;27947;47.556;18.718;2022-09-20T13:42:59;1.42;;;0.60;;
42294;SDS011;27947;47.556;18.718;2022-09-20T13:45:25;2.00;;;0.57;;
42294;SDS011;27947;47.556;18.718;2022-09-20T13:47:52;1.45;;;0.75;;
42294;SDS011;27947;47.556;18.718;2022-09-20T13:52:52;1.08;;;0.60;;
42294;SDS011;27947;47.556;18.718;2022-09-20T13:55:19;1.98;;;0.80;;
42294;SDS011;27947;47.556;18.718;2022-09-20T13:57:44;1.17;;;0.50;;
42294;SDS011;27947;47.556;18.718;2022-09-20T14:00:15;1.23;;;0.50;;
42294;SDS011;27947;47.556;18.718;2022-09-20T14:02:40;1.25;;;0.80;;
42294;SDS011;27947;47.556;18.718;2022-09-20T14:05:06;1.58;;;0.70;;
42294;SDS011;27947;47.556;18.718;2022-09-20T14:07:39;2.47;;;0.63;;
42294;SDS011;27947;47.556;18.718;2022-09-20T14:10:24;0.57;;;0.45;;
42294;SDS011;27947;47.556;18.718;2022-09-20T14:12:51;0.40;;;0.40;;
42294;SDS011;27947;47.556;18.718;2022-09-20T14:15:17;2.25;;;0.55;;
42294;SDS011;27947;47.556;18.718;2022-09-20T14:17:42;1.65;;;0.55;;
42294;SDS011;27947;47.556;18.718;2022-09-20T14:20:08;0.77;;;0.50;;
42294;SDS011;27947;47.556;18.718;2022-09-20T14:22:38;0.80;;;0.60;;
42294;SDS011;27947;47.556;18.718;2022-09-20T14:27:38;1.50;;;0.65;;
42294;SDS011;27947;47.556;18.718;2022-09-20T14:30:04;0.47;;;0.47;;
42294;SDS011;27947;47.556;18.718;2022-09-20T14:32:34;2.35;;;0.88;;
42294;SDS011;27947;47.556;18.718;2022-09-20T14:37:30;2.13;;;0.70;;
42294;SDS011;27947;47.556;18.718;2022-09-20T14:39:57;0.80;;;0.80;;
42294;SDS011;27947;47.556;18.718;2022-09-20T14:42:34;1.63;;;0.70;;
42294;SDS011;27947;47.556;18.718;2022-09-20T14:45:00;2.75;;;0.80;;
42294;SDS011;27947;47.556;18.718;2022-09-20T14:47:26;5.88;;;1.10;;
42294;SDS011;27947;47.556;18.718;2022-09-20T14:49:52;3.60;;;0.80;;
42294;SDS011;27947;47.556;18.718;2022-09-20T14:52:22;4.05;;;0.90;;
42294;SDS011;27947;47.556;18.718;2022-09-20T14:54:56;1.38;;;0.57;;
42294;SDS011;27947;47.556;18.718;2022-09-20T14:57:22;1.13;;;0.60;;
42294;SDS011;27947;47.556;18.718;2022-09-20T14:59:47;0.30;;;0.30;;
42294;SDS011;27947;47.556;18.718;2022-09-20T15:02:18;0.52;;;0.30;;
42294;SDS011;27947;47.556;18.718;2022-09-20T15:04:54;3.30;;;0.32;;
42294;SDS011;27947;47.556;18.718;2022-09-20T15:07:21;0.68;;;0.30;;
42294;SDS011;27947;47.556;18.718;2022-09-20T15:09:47;0.40;;;0.30;;
42294;SDS011;27947;47.556;18.718;2022-09-20T15:12:16;0.40;;;0.40;;
42294;SDS011;27947;47.556;18.718;2022-09-20T15:14:42;0.28;;;0.20;;
42294;SDS011;27947;47.556;18.718;2022-09-20T15:17:40;1.10;;;0.30;;
42294;SDS011;27947;47.556;18.718;2022-09-20T15:19:58;0.55;;;0.40;;
42294;SDS011;27947;47.556;18.718;2022-09-20T15:22:24;0.98;;;0.57;;
42294;SDS011;27947;47.556;18.718;2022-09-20T15:24:50;0.88;;;0.77;;
42294;SDS011;27947;47.556;18.718;2022-09-20T15:27:15;1.20;;;0.85;;
42294;SDS011;27947;47.556;18.718;2022-09-20T15:29:41;1.23;;;0.75;;
42294;SDS011;27947;47.556;18.718;2022-09-20T15:32:08;0.93;;;0.80;;
42294;SDS011;27947;47.556;18.718;2022-09-20T15:34:34;0.85;;;0.73;;
42294;SDS011;27947;47.556;18.718;2022-09-20T15:36:59;1.30;;;0.80;;
42294;SDS011;27947;47.556;18.718;2022-09-20T15:39:24;1.77;;;0.90;;
42294;SDS011;27947;47.556;18.718;2022-09-20T15:41:50;1.02;;;0.60;;
42294;SDS011;27947;47.556;18.718;2022-09-20T15:44:16;2.85;;;0.90;;
42294;SDS011;27947;47.556;18.718;2022-09-20T15:46:41;0.70;;;0.60;;
42294;SDS011;27947;47.556;18.718;2022-09-20T15:49:08;1.48;;;0.82;;
42294;SDS011;27947;47.556;18.718;2022-09-20T15:51:35;2.88;;;1.05;;
42294;SDS011;27947;47.556;18.718;2022-09-20T15:54:02;1.30;;;0.75;;
42294;SDS011;27947;47.556;18.718;2022-09-20T15:56:32;3.03;;;0.60;;
42294;SDS011;27947;47.556;18.718;2022-09-20T15:58:58;1.55;;;0.80;;
42294;SDS011;27947;47.556;18.718;2022-09-20T16:01:26;1.10;;;0.70;;
42294;SDS011;27947;47.556;18.718;2022-09-20T16:03:52;1.85;;;0.85;;
42294;SDS011;27947;47.556;18.718;2022-09-20T16:06:18;1.10;;;0.70;;
42294;SDS011;27947;47.556;18.718;2022-09-20T16:08:43;0.90;;;0.57;;
42294;SDS011;27947;47.556;18.718;2022-09-20T16:11:11;1.77;;;0.70;;
42294;SDS011;27947;47.556;18.718;2022-09-20T16:13:37;0.88;;;0.65;;
42294;SDS011;27947;47.556;18.718;2022-09-20T16:16:03;3.53;;;0.77;;
42294;SDS011;27947;47.556;18.718;2022-09-20T16:18:29;2.03;;;1.20;;
42294;SDS011;27947;47.556;18.718;2022-09-20T16:21:14;1.42;;;0.98;;
42294;SDS011;27947;47.556;18.718;2022-09-20T16:23:40;6.72;;;1.13;;
42294;SDS011;27947;47.556;18.718;2022-09-20T16:26:08;3.88;;;0.90;;
42294;SDS011;27947;47.556;18.718;2022-09-20T16:28:37;2.33;;;1.10;;
42294;SDS011;27947;47.556;18.718;2022-09-20T16:31:03;1.95;;;1.00;;
42294;SDS011;27947;47.556;18.718;2022-09-20T16:33:28;5.13;;;0.95;;
42294;SDS011;27947;47.556;18.718;2022-09-20T16:35:54;1.88;;;1.10;;
42294;SDS011;27947;47.556;18.718;2022-09-20T16:38:20;5.05;;;1.00;;
42294;SDS011;27947;47.556;18.718;2022-09-20T16:40:47;2.05;;;0.82;;
42294;SDS011;27947;47.556;18.718;2022-09-20T16:43:13;1.10;;;0.80;;
42294;SDS011;27947;47.556;18.718;2022-09-20T16:45:39;2.00;;;0.73;;
42294;SDS011;27947;47.556;18.718;2022-09-20T16:48:04;1.77;;;1.08;;
42294;SDS011;27947;47.556;18.718;2022-09-20T16:50:30;1.92;;;0.80;;
42294;SDS011;27947;47.556;18.718;2022-09-20T16:52:55;4.22;;;0.82;;
42294;SDS011;27947;47.556;18.718;2022-09-20T16:55:20;1.15;;;0.80;;
42294;SDS011;27947;47.556;18.718;2022-09-20T16:57:49;2.55;;;1.15;;
42294;SDS011;27947;47.556;18.718;2022-09-20T17:00:14;1.08;;;0.82;;
42294;SDS011;27947;47.556;18.718;2022-09-20T17:02:49;1.58;;;0.90;;
42294;SDS011;27947;47.556;18.718;2022-09-20T17:05:14;2.20;;;1.10;;
42294;SDS011;27947;47.556;18.718;2022-09-20T17:07:40;1.83;;;1.00;;
42294;SDS011;27947;47.556;18.718;2022-09-20T17:10:07;2.35;;;1.15;;
42294;SDS011;27947;47.556;18.718;2022-09-20T17:12:32;2.90;;;1.30;;
42294;SDS011;27947;47.556;18.718;2022-09-20T17:15:05;1.17;;;0.88;;
42294;SDS011;27947;47.556;18.718;2022-09-20T17:17:31;7.22;;;1.80;;
42294;SDS011;27947;47.556;18.718;2022-09-20T17:19:57;2.63;;;1.33;;
42294;SDS011;27947;47.556;18.718;2022-09-20T17:22:22;2.80;;;1.23;;
42294;SDS011;27947;47.556;18.718;2022-09-20T17:24:48;5.25;;;1.02;;
42294;SDS011;27947;47.556;18.718;2022-09-20T17:27:14;2.03;;;1.10;;
42294;SDS011;27947;47.556;18.718;2022-09-20T17:29:39;2.65;;;1.38;;
42294;SDS011;27947;47.556;18.718;2022-09-20T17:32:04;2.33;;;1.48;;
42294;SDS011;27947;47.556;18.718;2022-09-20T17:34:29;2.50;;;1.30;;
42294;SDS011;27947;47.556;18.718;2022-09-20T17:36:55;2.13;;;1.52;;
42294;SDS011;27947;47.556;18.718;2022-09-20T17:39:21;1.65;;;1.30;;
42294;SDS011;27947;47.556;18.718;2022-09-20T17:41:47;1.83;;;1.20;;
42294;SDS011;27947;47.556;18.718;2022-09-20T17:44:13;1.98;;;1.20;;
42294;SDS011;27947;47.556;18.718;2022-09-20T17:46:39;2.42;;;1.20;;
42294;SDS011;27947;47.556;18.718;2022-09-20T17:49:06;1.98;;;1.17;;
42294;SDS011;27947;47.556;18.718;2022-09-20T17:51:45;4.07;;;1.45;;
42294;SDS011;27947;47.556;18.718;2022-09-20T17:54:11;1.23;;;0.93;;
42294;SDS011;27947;47.556;18.718;2022-09-20T17:56:43;1.88;;;0.70;;
42294;SDS011;27947;47.556;18.718;2022-09-20T17:59:09;2.30;;;0.98;;
42294;SDS011;27947;47.556;18.718;2022-09-20T18:01:35;1.15;;;0.95;;
42294;SDS011;27947;47.556;18.718;2022-09-20T18:04:02;4.82;;;1.10;;
42294;SDS011;27947;47.556;18.718;2022-09-20T18:06:32;3.58;;;1.30;;
42294;SDS011;27947;47.556;18.718;2022-09-20T18:09:02;1.17;;;1.00;;
42294;SDS011;27947;47.556;18.718;2022-09-20T18:11:35;2.63;;;1.08;;
42294;SDS011;27947;47.556;18.718;2022-09-20T18:14:01;1.20;;;1.00;;
42294;SDS011;27947;47.556;18.718;2022-09-20T18:16:26;1.88;;;1.13;;
42294;SDS011;27947;47.556;18.718;2022-09-20T18:18:52;1.73;;;1.17;;
42294;SDS011;27947;47.556;18.718;2022-09-20T18:21:18;2.55;;;1.08;;
42294;SDS011;27947;47.556;18.718;2022-09-20T18:23:44;2.75;;;2.10;;
42294;SDS011;27947;47.556;18.718;2022-09-20T18:26:19;1.80;;;1.20;;
42294;SDS011;27947;47.556;18.718;2022-09-20T18:28:54;1.83;;;1.23;;
42294;SDS011;27947;47.556;18.718;2022-09-20T18:31:25;2.85;;;1.42;;
42294;SDS011;27947;47.556;18.718;2022-09-20T18:33:51;1.63;;;1.20;;
42294;SDS011;27947;47.556;18.718;2022-09-20T18:36:17;2.67;;;1.25;;
42294;SDS011;27947;47.556;18.718;2022-09-20T18:38:43;1.83;;;1.02;;
42294;SDS011;27947;47.556;18.718;2022-09-20T18:41:09;1.55;;;1.10;;
42294;SDS011;27947;47.556;18.718;2022-09-20T18:43:35;2.30;;;1.40;;
42294;SDS011;27947;47.556;18.718;2022-09-20T18:46:00;1.10;;;0.82;;
42294;SDS011;27947;47.556;18.718;2022-09-20T18:48:26;2.05;;;0.88;;
42294;SDS011;27947;47.556;18.718;2022-09-20T18:50:56;1.48;;;1.00;;
42294;SDS011;27947;47.556;18.718;2022-09-20T18:53:29;2.15;;;0.98;;
42294;SDS011;27947;47.556;18.718;2022-09-20T18:55:55;1.73;;;1.23;;
42294;SDS011;27947;47.556;18.718;2022-09-20T18:58:21;3.30;;;1.30;;
42294;SDS011;27947;47.556;18.718;2022-09-20T19:00:49;3.70;;;1.42;;
42294;SDS011;27947;47.556;18.718;2022-09-20T19:03:20;1.17;;;0.85;;
42294;SDS011;27947;47.556;18.718;2022-09-20T19:05:49;7.05;;;1.42;;
42294;SDS011;27947;47.556;18.718;2022-09-20T19:10:51;2.63;;;0.82;;
42294;SDS011;27947;47.556;18.718;2022-09-20T19:28:40;1.20;;;1.10;;
42294;SDS011;27947;47.556;18.718;2022-09-20T19:31:09;6.45;;;1.00;;
42294;SDS011;27947;47.556;18.718;2022-09-20T19:33:35;1.38;;;1.08;;
42294;SDS011;27947;47.556;18.718;2022-09-20T19:36:01;7.75;;;1.00;;
42294;SDS011;27947;47.556;18.718;2022-09-20T19:38:39;6.60;;;0.98;;
42294;SDS011;27947;47.556;18.718;2022-09-20T19:41:17;74.32;;;3.63;;
42294;SDS011;27947;47.556;18.718;2022-09-20T19:51:38;76.78;;;4.55;;
42294;SDS011;27947;47.556;18.718;2022-09-20T19:54:04;42.20;;;3.85;;
42294;SDS011;27947;47.556;18.718;2022-09-20T19:56:33;81.05;;;3.72;;
42294;SDS011;27947;47.556;18.718;2022-09-20T19:59:00;69.63;;;3.75;;
42294;SDS011;27947;47.556;18.718;2022-09-20T20:01:26;12.38;;;2.17;;
42294;SDS011;27947;47.556;18.718;2022-09-20T20:03:52;28.30;;;1.83;;
42294;SDS011;27947;47.556;18.718;2022-09-20T20:06:39;3.25;;;1.23;;
42294;SDS011;27947;47.556;18.718;2022-09-20T20:16:58;8.52;;;1.40;;
42294;SDS011;27947;47.556;18.718;2022-09-20T20:21:58;30.55;;;1.98;;
42294;SDS011;27947;47.556;18.718;2022-09-20T20:26:50;14.30;;;2.17;;
42294;SDS011;27947;47.556;18.718;2022-09-20T20:29:15;21.10;;;1.92;;
42294;SDS011;27947;47.556;18.718;2022-09-20T20:31:40;11.48;;;1.90;;
42294;SDS011;27947;47.556;18.718;2022-09-20T20:34:06;4.30;;;1.48;;
42294;SDS011;27947;47.556;18.718;2022-09-20T20:36:33;4.50;;;1.40;;
42294;SDS011;27947;47.556;18.718;2022-09-20T20:38:58;4.10;;;1.13;;
42294;SDS011;27947;47.556;18.718;2022-09-20T20:41:24;3.08;;;0.95;;
42294;SDS011;27947;47.556;18.718;2022-09-20T20:43:51;6.05;;;1.27;;
42294;SDS011;27947;47.556;18.718;2022-09-20T20:46:20;0.93;;;0.50;;
42294;SDS011;27947;47.556;18.718;2022-09-20T20:48:45;3.42;;;0.30;;